sensor_id;sensor_type;location;lat;lon;timestamp;pressure;altitude;pressure_sealevel;temperature;humidity
9525;BME280;15940;48.734;9.112;2023-01-24T00:00:04;97886.91;;;0.55;90.18
9525;BME280;15940;48.734;9.112;2023-01-24T00:02:32;97884.22;;;0.55;90.21
9525;BME280;15940;48.734;9.112;2023-01-24T00:04:59;97883.88;;;0.57;90.35
9525;BME280;15940;48.734;9.112;2023-01-24T00:07:26;97880.81;;;0.55;90.06
9525;BME280;15940;48.734;9.112;2023-01-24T00:09:52;97872.44;;;0.53;90.06
9525;BME280;15940;48.734;9.112;2023-01-24T00:12:19;97882.72;;;0.54;90.03
9525;BME280;15940;48.734;9.112;2023-01-24T00:14:46;97876.25;;;0.52;89.97
9525;BME280;15940;48.734;9.112;2023-01-24T00:17:14;97868.28;;;0.48;90.19
9525;BME280;15940;48.734;9.112;2023-01-24T00:19:41;97870.94;;;0.48;90.29
9525;BME280;15940;48.734;9.112;2023-01-24T00:22:08;97877.41;;;0.47;90.26
9525;BME280;15940;48.734;9.112;2023-01-24T00:24:35;97871.31;;;0.50;90.76
9525;BME280;15940;48.734;9.112;2023-01-24T00:27:02;97875.13;;;0.49;89.92
9525;BME280;15940;48.734;9.112;2023-01-24T00:29:29;97869.81;;;0.46;90.16
9525;BME280;15940;48.734;9.112;2023-01-24T00:31:56;97872.06;;;0.47;90.31
9525;BME280;15940;48.734;9.112;2023-01-24T00:34:25;97879.31;;;0.50;90.31
9525;BME280;15940;48.734;9.112;2023-01-24T00:36:51;97884.25;;;0.52;90.75
9525;BME280;15940;48.734;9.112;2023-01-24T00:39:18;97891.50;;;0.51;90.21
9525;BME280;15940;48.734;9.112;2023-01-24T00:41:45;97888.44;;;0.53;90.92
9525;BME280;15940;48.734;9.112;2023-01-24T00:44:12;97891.13;;;0.49;90.14
9525;BME280;15940;48.734;9.112;2023-01-24T00:46:39;97886.94;;;0.48;90.39
9525;BME280;15940;48.734;9.112;2023-01-24T00:49:06;97889.22;;;0.57;91.20
9525;BME280;15940;48.734;9.112;2023-01-24T00:51:35;97885.78;;;0.53;90.12
9525;BME280;15940;48.734;9.112;2023-01-24T00:54:02;97885.41;;;0.51;90.07
9525;BME280;15940;48.734;9.112;2023-01-24T00:56:29;97885.75;;;0.56;90.17
9525;BME280;15940;48.734;9.112;2023-01-24T00:58:56;97891.47;;;0.55;90.04
9525;BME280;15940;48.734;9.112;2023-01-24T01:01:23;97888.06;;;0.51;90.01
9525;BME280;15940;48.734;9.112;2023-01-24T01:03:49;97895.69;;;0.49;90.10
9525;BME280;15940;48.734;9.112;2023-01-24T01:06:20;97885.03;;;0.45;90.00
9525;BME280;15940;48.734;9.112;2023-01-24T01:08:48;97891.13;;;0.46;90.28
9525;BME280;15940;48.734;9.112;2023-01-24T01:11:15;97894.19;;;0.48;90.04
9525;BME280;15940;48.734;9.112;2023-01-24T01:13:42;97894.19;;;0.48;90.11
9525;BME280;15940;48.734;9.112;2023-01-24T01:16:16;97897.97;;;0.50;90.48
9525;BME280;15940;48.734;9.112;2023-01-24T01:18:45;97889.59;;;0.52;90.06
9525;BME280;15940;48.734;9.112;2023-01-24T01:21:13;97901.78;;;0.49;90.08
9525;BME280;15940;48.734;9.112;2023-01-24T01:23:40;97907.50;;;0.51;90.06
9525;BME280;15940;48.734;9.112;2023-01-24T01:26:14;97897.59;;;0.48;89.80
9525;BME280;15940;48.734;9.112;2023-01-24T01:28:41;97907.50;;;0.48;90.05
9525;BME280;15940;48.734;9.112;2023-01-24T01:31:08;97908.28;;;0.48;89.90
9525;BME280;15940;48.734;9.112;2023-01-24T01:33:35;97908.25;;;0.52;90.30
9525;BME280;15940;48.734;9.112;2023-01-24T01:36:02;97901.41;;;0.47;89.95
9525;BME280;15940;48.734;9.112;2023-01-24T01:38:29;97900.63;;;0.47;90.09
9525;BME280;15940;48.734;9.112;2023-01-24T01:40:57;97910.19;;;0.48;90.00
9525;BME280;15940;48.734;9.112;2023-01-24T01:43:27;97906.34;;;0.45;89.95
9525;BME280;15940;48.734;9.112;2023-01-24T01:46:13;97908.97;;;0.56;90.79
9525;BME280;15940;48.734;9.112;2023-01-24T01:48:46;97914.34;;;0.52;90.33
9525;BME280;15940;48.734;9.112;2023-01-24T01:51:19;97912.06;;;0.51;89.92
9525;BME280;15940;48.734;9.112;2023-01-24T01:53:51;97914.38;;;0.49;90.00
9525;BME280;15940;48.734;9.112;2023-01-24T01:56:25;97914.72;;;0.47;89.70
9525;BME280;15940;48.734;9.112;2023-01-24T01:58:59;97919.69;;;0.49;90.29
9525;BME280;15940;48.734;9.112;2023-01-24T02:01:28;97907.88;;;0.46;89.83
9525;BME280;15940;48.734;9.112;2023-01-24T02:04:03;97913.22;;;0.46;90.17
9525;BME280;15940;48.734;9.112;2023-01-24T02:06:49;97899.91;;;0.43;90.08
9525;BME280;15940;48.734;9.112;2023-01-24T02:09:21;97910.94;;;0.48;90.21
9525;BME280;15940;48.734;9.112;2023-01-24T02:11:52;97914.72;;;0.47;90.16
9525;BME280;15940;48.734;9.112;2023-01-24T02:14:23;97909.38;;;0.47;90.42
9525;BME280;15940;48.734;9.112;2023-01-24T02:17:08;97913.59;;;0.52;90.40
9525;BME280;15940;48.734;9.112;2023-01-24T02:20:03;97907.50;;;0.51;90.20
9525;BME280;15940;48.734;9.112;2023-01-24T02:22:39;97913.22;;;0.50;90.08
9525;BME280;15940;48.734;9.112;2023-01-24T02:25:19;97921.97;;;0.50;90.07
9525;BME280;15940;48.734;9.112;2023-01-24T02:27:50;97917.03;;;0.49;90.28
9525;BME280;15940;48.734;9.112;2023-01-24T02:30:17;97923.88;;;0.46;90.06
9525;BME280;15940;48.734;9.112;2023-01-24T02:32:44;97921.97;;;0.47;90.27
9525;BME280;15940;48.734;9.112;2023-01-24T02:35:26;97923.50;;;0.48;90.04
9525;BME280;15940;48.734;9.112;2023-01-24T02:37:55;97923.50;;;0.44;90.13
9525;BME280;15940;48.734;9.112;2023-01-24T02:40:25;97929.22;;;0.50;90.42
9525;BME280;15940;48.734;9.112;2023-01-24T02:42:57;97922.72;;;0.47;90.55
9525;BME280;15940;48.734;9.112;2023-01-24T02:45:30;97922.34;;;0.49;90.27
9525;BME280;15940;48.734;9.112;2023-01-24T02:47:58;97938.72;;;0.51;90.39
9525;BME280;15940;48.734;9.112;2023-01-24T02:50:28;97932.25;;;0.48;90.14
9525;BME280;15940;48.734;9.112;2023-01-24T02:53:15;97935.28;;;0.47;90.20
9525;BME280;15940;48.734;9.112;2023-01-24T02:55:58;97943.69;;;0.45;90.22
9525;BME280;15940;48.734;9.112;2023-01-24T02:58:44;97947.50;;;0.44;90.40
9525;BME280;15940;48.734;9.112;2023-01-24T03:01:12;97941.78;;;0.46;90.33
9525;BME280;15940;48.734;9.112;2023-01-24T03:03:40;97939.13;;;0.49;90.19
9525;BME280;15940;48.734;9.112;2023-01-24T03:06:08;97934.53;;;0.50;90.42
9525;BME280;15940;48.734;9.112;2023-01-24T03:08:37;97931.84;;;0.53;90.35
9525;BME280;15940;48.734;9.112;2023-01-24T03:11:05;97935.28;;;0.50;90.37
9525;BME280;15940;48.734;9.112;2023-01-24T03:13:32;97934.91;;;0.45;90.10
9525;BME280;15940;48.734;9.112;2023-01-24T03:16:18;97939.09;;;0.46;90.38
9525;BME280;15940;48.734;9.112;2023-01-24T03:19:03;97935.28;;;0.47;90.70
9525;BME280;15940;48.734;9.112;2023-01-24T03:21:47;97930.34;;;0.45;90.85
9525;BME280;15940;48.734;9.112;2023-01-24T03:24:32;97931.88;;;0.50;90.64
9525;BME280;15940;48.734;9.112;2023-01-24T03:27:17;97934.53;;;0.50;90.92
9525;BME280;15940;48.734;9.112;2023-01-24T03:30:02;97935.28;;;0.47;90.51
9525;BME280;15940;48.734;9.112;2023-01-24T03:32:48;97941.03;;;0.49;90.90
9525;BME280;15940;48.734;9.112;2023-01-24T03:35:33;97936.84;;;0.48;90.57
9525;BME280;15940;48.734;9.112;2023-01-24T03:38:00;97935.28;;;0.47;90.70
9525;BME280;15940;48.734;9.112;2023-01-24T03:40:44;97938.72;;;0.47;90.85
9525;BME280;15940;48.734;9.112;2023-01-24T03:43:11;97936.81;;;0.51;90.83
9525;BME280;15940;48.734;9.112;2023-01-24T03:45:39;97939.13;;;0.49;90.75
9525;BME280;15940;48.734;9.112;2023-01-24T03:48:09;97940.63;;;0.47;90.48
9525;BME280;15940;48.734;9.112;2023-01-24T03:50:40;97945.59;;;0.48;90.63
9525;BME280;15940;48.734;9.112;2023-01-24T03:53:27;97937.59;;;0.48;90.82
9525;BME280;15940;48.734;9.112;2023-01-24T03:55:58;97948.63;;;0.50;90.74
9525;BME280;15940;48.734;9.112;2023-01-24T03:58:29;97956.63;;;0.47;90.57
9525;BME280;15940;48.734;9.112;2023-01-24T04:00:56;97952.06;;;0.44;90.51
9525;BME280;15940;48.734;9.112;2023-01-24T04:03:24;97941.78;;;0.49;91.21
9525;BME280;15940;48.734;9.112;2023-01-24T04:05:51;97953.19;;;0.46;90.77
9525;BME280;15940;48.734;9.112;2023-01-24T04:08:19;97950.91;;;0.45;90.69
9525;BME280;15940;48.734;9.112;2023-01-24T04:10:46;97952.03;;;0.47;90.68
9525;BME280;15940;48.734;9.112;2023-01-24T04:13:13;97953.19;;;0.46;90.58
9525;BME280;15940;48.734;9.112;2023-01-24T04:15:40;97952.84;;;0.41;90.65
9525;BME280;15940;48.734;9.112;2023-01-24T04:18:07;97952.03;;;0.47;90.96
9525;BME280;15940;48.734;9.112;2023-01-24T04:20:36;97949.00;;;0.45;90.95
9525;BME280;15940;48.734;9.112;2023-01-24T04:23:04;97931.50;;;0.44;90.86
9525;BME280;15940;48.734;9.112;2023-01-24T04:25:32;97943.28;;;0.47;90.85
9525;BME280;15940;48.734;9.112;2023-01-24T04:27:59;97937.97;;;0.43;90.79
9525;BME280;15940;48.734;9.112;2023-01-24T04:30:27;97937.59;;;0.48;91.48
9525;BME280;15940;48.734;9.112;2023-01-24T04:32:54;97939.91;;;0.39;90.90
9525;BME280;15940;48.734;9.112;2023-01-24T04:35:23;97944.47;;;0.39;90.96
9525;BME280;15940;48.734;9.112;2023-01-24T04:37:52;97942.19;;;0.41;90.97
9525;BME280;15940;48.734;9.112;2023-01-24T04:40:19;97951.72;;;0.38;90.98
9525;BME280;15940;48.734;9.112;2023-01-24T04:42:46;97941.06;;;0.38;90.88
9525;BME280;15940;48.734;9.112;2023-01-24T04:45:13;97939.88;;;0.36;91.02
9525;BME280;15940;48.734;9.112;2023-01-24T04:47:40;97951.72;;;0.38;91.40
9525;BME280;15940;48.734;9.112;2023-01-24T04:50:08;97955.13;;;0.42;91.70
9525;BME280;15940;48.734;9.112;2023-01-24T04:52:35;97947.13;;;0.42;91.26
9525;BME280;15940;48.734;9.112;2023-01-24T04:55:05;97954.72;;;0.44;91.21
9525;BME280;15940;48.734;9.112;2023-01-24T04:57:32;97953.59;;;0.38;91.14
9525;BME280;15940;48.734;9.112;2023-01-24T04:59:59;97960.44;;;0.42;91.92
9525;BME280;15940;48.734;9.112;2023-01-24T05:02:26;97961.59;;;0.41;91.51
9525;BME280;15940;48.734;9.112;2023-01-24T05:04:53;97962.34;;;0.45;91.85
9525;BME280;15940;48.734;9.112;2023-01-24T05:07:20;97963.09;;;0.49;91.39
9525;BME280;15940;48.734;9.112;2023-01-24T05:09:46;97962.69;;;0.47;91.45
9525;BME280;15940;48.734;9.112;2023-01-24T05:12:15;97974.50;;;0.46;91.43
9525;BME280;15940;48.734;9.112;2023-01-24T05:14:41;97967.66;;;0.45;91.40
9525;BME280;15940;48.734;9.112;2023-01-24T05:17:08;97965.00;;;0.45;91.53
9525;BME280;15940;48.734;9.112;2023-01-24T05:19:35;97974.13;;;0.51;91.91
9525;BME280;15940;48.734;9.112;2023-01-24T05:22:02;97968.41;;;0.53;91.54
9525;BME280;15940;48.734;9.112;2023-01-24T05:24:29;97973.00;;;0.49;91.51
9525;BME280;15940;48.734;9.112;2023-01-24T05:26:56;97973.72;;;0.56;91.77
9525;BME280;15940;48.734;9.112;2023-01-24T05:29:24;97976.44;;;0.49;91.28
9525;BME280;15940;48.734;9.112;2023-01-24T05:31:51;97982.91;;;0.52;91.72
9525;BME280;15940;48.734;9.112;2023-01-24T05:34:18;97983.66;;;0.52;91.32
9525;BME280;15940;48.734;9.112;2023-01-24T05:36:45;97982.53;;;0.50;91.53
9525;BME280;15940;48.734;9.112;2023-01-24T05:39:12;97981.75;;;0.46;91.52
9525;BME280;15940;48.734;9.112;2023-01-24T05:41:40;97995.09;;;0.46;91.59
9525;BME280;15940;48.734;9.112;2023-01-24T05:44:07;97993.19;;;0.46;91.48
9525;BME280;15940;48.734;9.112;2023-01-24T05:46:35;97999.66;;;0.49;91.91
9525;BME280;15940;48.734;9.112;2023-01-24T05:49:02;98001.94;;;0.54;92.26
9525;BME280;15940;48.734;9.112;2023-01-24T05:51:29;98002.69;;;0.54;91.66
9525;BME280;15940;48.734;9.112;2023-01-24T05:53:56;98000.41;;;0.53;91.87
9525;BME280;15940;48.734;9.112;2023-01-24T05:56:22;98001.94;;;0.50;91.72
9525;BME280;15940;48.734;9.112;2023-01-24T05:58:49;97997.75;;;0.49;91.63
9525;BME280;15940;48.734;9.112;2023-01-24T06:01:18;97997.00;;;0.49;91.73
9525;BME280;15940;48.734;9.112;2023-01-24T06:03:50;97997.38;;;0.44;91.81
9525;BME280;15940;48.734;9.112;2023-01-24T06:06:19;98001.56;;;0.45;91.89
9525;BME280;15940;48.734;9.112;2023-01-24T06:08:47;98001.16;;;0.46;91.88
9525;BME280;15940;48.734;9.112;2023-01-24T06:11:16;97993.97;;;0.40;91.88
9525;BME280;15940;48.734;9.112;2023-01-24T06:13:44;97998.53;;;0.39;91.80
9525;BME280;15940;48.734;9.112;2023-01-24T06:16:13;98005.00;;;0.42;91.93
9525;BME280;15940;48.734;9.112;2023-01-24T06:18:40;97998.16;;;0.41;92.03
9525;BME280;15940;48.734;9.112;2023-01-24T06:21:36;98001.22;;;0.39;92.06
9525;BME280;15940;48.734;9.112;2023-01-24T06:24:08;98002.72;;;0.40;92.50
9525;BME280;15940;48.734;9.112;2023-01-24T06:26:36;98001.97;;;0.40;92.04
9525;BME280;15940;48.734;9.112;2023-01-24T06:29:04;98002.34;;;0.38;92.05
9525;BME280;15940;48.734;9.112;2023-01-24T06:31:38;98009.56;;;0.38;92.20
9525;BME280;15940;48.734;9.112;2023-01-24T06:34:34;97997.78;;;0.39;92.26
9525;BME280;15940;48.734;9.112;2023-01-24T06:37:15;98009.56;;;0.38;92.11
9525;BME280;15940;48.734;9.112;2023-01-24T06:39:50;98010.69;;;0.37;92.34
9525;BME280;15940;48.734;9.112;2023-01-24T06:42:20;98012.59;;;0.36;92.01
9525;BME280;15940;48.734;9.112;2023-01-24T06:44:47;98015.66;;;0.42;92.45
9525;BME280;15940;48.734;9.112;2023-01-24T06:47:14;98024.81;;;0.41;92.22
9525;BME280;15940;48.734;9.112;2023-01-24T06:49:42;98016.81;;;0.41;92.25
9525;BME280;15940;48.734;9.112;2023-01-24T06:52:11;98023.28;;;0.43;92.36
9525;BME280;15940;48.734;9.112;2023-01-24T06:54:38;98029.72;;;0.46;92.06
9525;BME280;15940;48.734;9.112;2023-01-24T06:57:05;98024.81;;;0.41;91.93
9525;BME280;15940;48.734;9.112;2023-01-24T06:59:32;98035.84;;;0.39;91.84
9525;BME280;15940;48.734;9.112;2023-01-24T07:01:59;98026.34;;;0.38;92.00
9525;BME280;15940;48.734;9.112;2023-01-24T07:04:26;98030.13;;;0.41;92.14
9525;BME280;15940;48.734;9.112;2023-01-24T07:06:53;98031.28;;;0.40;91.95
9525;BME280;15940;48.734;9.112;2023-01-24T07:09:22;98043.84;;;0.43;91.84
9525;BME280;15940;48.734;9.112;2023-01-24T07:11:49;98042.69;;;0.40;91.99
9525;BME280;15940;48.734;9.112;2023-01-24T07:14:19;98045.38;;;0.40;92.00
9525;BME280;15940;48.734;9.112;2023-01-24T07:16:46;98044.97;;;0.45;92.03
9525;BME280;15940;48.734;9.112;2023-01-24T07:19:15;98038.88;;;0.45;92.36
9525;BME280;15940;48.734;9.112;2023-01-24T07:21:43;98049.56;;;0.48;92.19
9525;BME280;15940;48.734;9.112;2023-01-24T07:24:13;98043.84;;;0.43;91.91
9525;BME280;15940;48.734;9.112;2023-01-24T07:26:43;98056.41;;;0.42;91.87
9525;BME280;15940;48.734;9.112;2023-01-24T07:29:10;98062.13;;;0.41;91.79
9525;BME280;15940;48.734;9.112;2023-01-24T07:31:38;98055.28;;;0.40;91.83
9525;BME280;15940;48.734;9.112;2023-01-24T07:34:04;98055.28;;;0.40;91.99
9525;BME280;15940;48.734;9.112;2023-01-24T07:36:32;98067.44;;;0.41;92.00
9525;BME280;15940;48.734;9.112;2023-01-24T07:38:58;98058.66;;;0.47;92.55
9525;BME280;15940;48.734;9.112;2023-01-24T07:41:25;98063.25;;;0.47;92.21
9525;BME280;15940;48.734;9.112;2023-01-24T07:43:55;98065.91;;;0.50;92.11
9525;BME280;15940;48.734;9.112;2023-01-24T07:46:22;98069.34;;;0.54;92.23
9525;BME280;15940;48.734;9.112;2023-01-24T07:48:48;98067.84;;;0.50;91.61
9525;BME280;15940;48.734;9.112;2023-01-24T07:51:15;98067.06;;;0.49;91.75
9525;BME280;15940;48.734;9.112;2023-01-24T07:53:42;98069.75;;;0.49;91.66
9525;BME280;15940;48.734;9.112;2023-01-24T07:56:09;98084.19;;;0.52;91.56
9525;BME280;15940;48.734;9.112;2023-01-24T07:58:36;98094.88;;;0.48;91.72
9525;BME280;15940;48.734;9.112;2023-01-24T08:01:04;98088.38;;;0.46;91.53
9525;BME280;15940;48.734;9.112;2023-01-24T08:03:31;98094.47;;;0.46;91.83
9525;BME280;15940;48.734;9.112;2023-01-24T08:05:59;98096.38;;;0.46;91.71
9525;BME280;15940;48.734;9.112;2023-01-24T08:08:25;98097.13;;;0.46;91.36
9525;BME280;15940;48.734;9.112;2023-01-24T08:10:52;98100.56;;;0.50;91.97
9525;BME280;15940;48.734;9.112;2023-01-24T08:13:19;98088.00;;;0.51;91.63
9525;BME280;15940;48.734;9.112;2023-01-24T08:15:47;98095.25;;;0.54;91.56
9525;BME280;15940;48.734;9.112;2023-01-24T08:18:15;98093.69;;;0.56;91.47
9525;BME280;15940;48.734;9.112;2023-01-24T08:20:43;98095.63;;;0.52;91.18
9525;BME280;15940;48.734;9.112;2023-01-24T08:23:10;98101.72;;;0.49;91.31
9525;BME280;15940;48.734;9.112;2023-01-24T08:25:37;98102.84;;;0.52;91.41
9525;BME280;15940;48.734;9.112;2023-01-24T08:28:04;98113.91;;;0.57;91.21
9525;BME280;15940;48.734;9.112;2023-01-24T08:30:31;98111.25;;;0.57;91.28
9525;BME280;15940;48.734;9.112;2023-01-24T08:33:02;98115.06;;;0.60;91.44
9525;BME280;15940;48.734;9.112;2023-01-24T08:35:31;98115.81;;;0.61;91.12
9525;BME280;15940;48.734;9.112;2023-01-24T08:37:59;98112.78;;;0.59;91.07
9525;BME280;15940;48.734;9.112;2023-01-24T08:40:26;98114.28;;;0.63;91.39
9525;BME280;15940;48.734;9.112;2023-01-24T08:42:53;98122.66;;;0.65;91.22
9525;BME280;15940;48.734;9.112;2023-01-24T08:45:20;98114.28;;;0.67;91.01
9525;BME280;15940;48.734;9.112;2023-01-24T08:47:51;98121.53;;;0.70;91.10
9525;BME280;15940;48.734;9.112;2023-01-24T08:50:19;98123.41;;;0.73;91.21
9525;BME280;15940;48.734;9.112;2023-01-24T08:52:48;98125.31;;;0.79;90.64
9525;BME280;15940;48.734;9.112;2023-01-24T08:55:15;98126.47;;;0.78;90.62
9525;BME280;15940;48.734;9.112;2023-01-24T08:57:42;98127.97;;;0.90;91.52
9525;BME280;15940;48.734;9.112;2023-01-24T09:00:11;98129.13;;;0.89;90.37
9525;BME280;15940;48.734;9.112;2023-01-24T09:02:38;98141.69;;;0.89;90.41
9525;BME280;15940;48.734;9.112;2023-01-24T09:05:06;98123.78;;;0.89;90.07
9525;BME280;15940;48.734;9.112;2023-01-24T09:07:34;98139.41;;;0.91;90.04
9525;BME280;15940;48.734;9.112;2023-01-24T09:10:04;98135.22;;;0.93;90.00
9525;BME280;15940;48.734;9.112;2023-01-24T09:12:31;98134.44;;;1.00;90.25
9525;BME280;15940;48.734;9.112;2023-01-24T09:14:58;98136.34;;;1.03;90.40
9525;BME280;15940;48.734;9.112;2023-01-24T09:17:25;98128.72;;;1.08;90.21
9525;BME280;15940;48.734;9.112;2023-01-24T09:19:52;98135.56;;;1.13;89.61
9525;BME280;15940;48.734;9.112;2023-01-24T09:22:19;98142.44;;;1.14;89.38
9525;BME280;15940;48.734;9.112;2023-01-24T09:24:46;98136.34;;;1.06;89.39
9525;BME280;15940;48.734;9.112;2023-01-24T09:27:14;98148.16;;;1.16;89.89
9525;BME280;15940;48.734;9.112;2023-01-24T09:29:41;98148.50;;;1.18;89.29
9525;BME280;15940;48.734;9.112;2023-01-24T09:32:08;98150.81;;;1.20;89.32
9525;BME280;15940;48.734;9.112;2023-01-24T09:34:35;98157.66;;;1.24;89.35
9525;BME280;15940;48.734;9.112;2023-01-24T09:37:02;98150.78;;;1.23;88.98
9525;BME280;15940;48.734;9.112;2023-01-24T09:39:29;98156.53;;;1.18;88.87
9525;BME280;15940;48.734;9.112;2023-01-24T09:42:02;98150.06;;;1.16;88.65
9525;BME280;15940;48.734;9.112;2023-01-24T09:44:42;98161.88;;;1.18;89.11
9525;BME280;15940;48.734;9.112;2023-01-24T09:47:19;98155.41;;;1.16;88.87
9525;BME280;15940;48.734;9.112;2023-01-24T09:49:51;98151.97;;;1.15;88.78
9525;BME280;15940;48.734;9.112;2023-01-24T09:52:27;98149.66;;;1.21;88.65
9525;BME280;15940;48.734;9.112;2023-01-24T09:55:02;98159.56;;;1.24;88.58
9525;BME280;15940;48.734;9.112;2023-01-24T09:57:37;98153.44;;;1.30;88.87
9525;BME280;15940;48.734;9.112;2023-01-24T10:00:17;98152.69;;;1.30;88.29
9525;BME280;15940;48.734;9.112;2023-01-24T10:02:46;98146.97;;;1.28;88.74
9525;BME280;15940;48.734;9.112;2023-01-24T10:05:14;98151.94;;;1.33;88.51
9525;BME280;15940;48.734;9.112;2023-01-24T10:08:07;98154.59;;;1.36;88.17
9525;BME280;15940;48.734;9.112;2023-01-24T10:10:45;98152.34;;;1.24;88.14
9525;BME280;15940;48.734;9.112;2023-01-24T10:19:24;98167.94;;;1.26;88.30
9525;BME280;15940;48.734;9.112;2023-01-24T10:22:16;98155.34;;;1.30;88.50
9525;BME280;15940;48.734;9.112;2023-01-24T10:24:55;98160.69;;;1.30;88.16
9525;BME280;15940;48.734;9.112;2023-01-24T10:27:29;98145.44;;;1.23;88.15
9525;BME280;15940;48.734;9.112;2023-01-24T10:30:01;98161.47;;;1.27;88.07
9525;BME280;15940;48.734;9.112;2023-01-24T10:32:33;98158.03;;;1.23;88.32
9525;BME280;15940;48.734;9.112;2023-01-24T10:35:11;98152.69;;;1.26;88.17
9525;BME280;15940;48.734;9.112;2023-01-24T10:37:43;98152.28;;;1.31;88.23
9525;BME280;15940;48.734;9.112;2023-01-24T10:40:12;98152.66;;;1.37;88.31
9525;BME280;15940;48.734;9.112;2023-01-24T10:42:40;98147.34;;;1.37;87.96
9525;BME280;15940;48.734;9.112;2023-01-24T10:45:40;98148.84;;;1.38;87.43
9525;BME280;15940;48.734;9.112;2023-01-24T10:48:27;98146.19;;;1.38;87.11
9525;BME280;15940;48.734;9.112;2023-01-24T10:51:11;98143.16;;;1.36;87.49
9525;BME280;15940;48.734;9.112;2023-01-24T10:53:38;98148.06;;;1.45;87.54
9525;BME280;15940;48.734;9.112;2023-01-24T10:56:07;98138.53;;;1.43;87.50
9525;BME280;15940;48.734;9.112;2023-01-24T10:58:36;98139.66;;;1.50;87.05
9525;BME280;15940;48.734;9.112;2023-01-24T11:01:16;98138.88;;;1.56;87.98
9525;BME280;15940;48.734;9.112;2023-01-24T11:03:47;98141.53;;;1.60;86.78
9525;BME280;15940;48.734;9.112;2023-01-24T11:06:31;98134.69;;;1.55;87.01
9525;BME280;15940;48.734;9.112;2023-01-24T11:09:04;98135.78;;;1.65;86.36
9525;BME280;15940;48.734;9.112;2023-01-24T11:11:42;98133.09;;;1.68;86.69
9525;BME280;15940;48.734;9.112;2023-01-24T11:14:14;98127.69;;;1.79;86.27
9525;BME280;15940;48.734;9.112;2023-01-24T11:16:44;98128.81;;;1.89;86.16
9525;BME280;15940;48.734;9.112;2023-01-24T11:19:32;98125.34;;;1.95;86.12
9525;BME280;15940;48.734;9.112;2023-01-24T11:22:01;98130.69;;;1.95;85.48
9525;BME280;15940;48.734;9.112;2023-01-24T11:24:29;98137.91;;;1.98;85.57
9525;BME280;15940;48.734;9.112;2023-01-24T11:27:03;98125.34;;;1.99;85.65
9525;BME280;15940;48.734;9.112;2023-01-24T11:29:31;98130.28;;;2.00;84.94
9525;BME280;15940;48.734;9.112;2023-01-24T11:32:20;98133.34;;;1.95;84.92
9525;BME280;15940;48.734;9.112;2023-01-24T11:34:58;98126.88;;;1.93;85.30
9525;BME280;15940;48.734;9.112;2023-01-24T11:40:33;98129.53;;;1.96;85.42
9525;BME280;15940;48.734;9.112;2023-01-24T11:43:55;98124.88;;;2.11;85.44
9525;BME280;15940;48.734;9.112;2023-01-24T11:46:44;98117.59;;;2.15;84.80
9525;BME280;15940;48.734;9.112;2023-01-24T11:49:52;98119.94;;;2.06;84.66
9525;BME280;15940;48.734;9.112;2023-01-24T11:52:53;98111.13;;;2.13;84.79
9525;BME280;15940;48.734;9.112;2023-01-24T11:55:41;98115.38;;;2.03;84.75
9525;BME280;15940;48.734;9.112;2023-01-24T11:58:50;98105.41;;;2.11;84.80
9525;BME280;15940;48.734;9.112;2023-01-24T12:01:32;98109.56;;;2.15;84.83
9525;BME280;15940;48.734;9.112;2023-01-24T12:07:14;98102.34;;;2.12;84.45
9525;BME280;15940;48.734;9.112;2023-01-24T12:09:51;98097.41;;;2.07;84.69
9525;BME280;15940;48.734;9.112;2023-01-24T12:12:27;98090.53;;;2.06;85.17
9525;BME280;15940;48.734;9.112;2023-01-24T12:15:17;98097.44;;;2.04;85.10
9525;BME280;15940;48.734;9.112;2023-01-24T12:18:05;98094.78;;;2.00;85.25
9525;BME280;15940;48.734;9.112;2023-01-24T12:20:58;98087.84;;;2.06;85.36
9525;BME280;15940;48.734;9.112;2023-01-24T12:23:34;98079.84;;;2.06;84.80
9525;BME280;15940;48.734;9.112;2023-01-24T12:26:10;98081.75;;;2.09;84.96
9525;BME280;15940;48.734;9.112;2023-01-24T12:28:44;98082.84;;;2.15;85.42
9525;BME280;15940;48.734;9.112;2023-01-24T12:31:24;98086.34;;;2.09;84.99
9525;BME280;15940;48.734;9.112;2023-01-24T12:33:58;98086.00;;;1.99;84.95
9525;BME280;15940;48.734;9.112;2023-01-24T12:36:37;98083.78;;;1.87;85.62
9525;BME280;15940;48.734;9.112;2023-01-24T12:39:12;98087.25;;;1.84;85.99
9525;BME280;15940;48.734;9.112;2023-01-24T12:41:45;98083.00;;;1.87;86.14
9525;BME280;15940;48.734;9.112;2023-01-24T12:44:25;98078.44;;;1.87;86.22
9525;BME280;15940;48.734;9.112;2023-01-24T12:47:25;98076.50;;;1.91;86.04
9525;BME280;15940;48.734;9.112;2023-01-24T12:50:13;98074.28;;;1.83;85.60
9525;BME280;15940;48.734;9.112;2023-01-24T12:52:46;98075.44;;;1.82;85.98
9525;BME280;15940;48.734;9.112;2023-01-24T12:55:23;98078.50;;;1.77;86.07
9525;BME280;15940;48.734;9.112;2023-01-24T12:57:59;98074.25;;;1.86;86.04
9525;BME280;15940;48.734;9.112;2023-01-24T13:00:39;98074.63;;;1.85;85.94
9525;BME280;15940;48.734;9.112;2023-01-24T13:04:07;98070.81;;;1.86;86.29
9525;BME280;15940;48.734;9.112;2023-01-24T13:06:45;98062.00;;;1.89;86.24
9525;BME280;15940;48.734;9.112;2023-01-24T13:09:23;98070.38;;;1.94;86.01
9525;BME280;15940;48.734;9.112;2023-01-24T13:11:54;98066.19;;;1.93;85.78
9525;BME280;15940;48.734;9.112;2023-01-24T13:14:27;98078.03;;;1.92;85.84
9525;BME280;15940;48.734;9.112;2023-01-24T13:17:52;98074.16;;;1.97;85.76
9525;BME280;15940;48.734;9.112;2023-01-24T13:20:54;98073.78;;;1.98;86.30
9525;BME280;15940;48.734;9.112;2023-01-24T13:23:52;98078.81;;;1.86;85.99
9525;BME280;15940;48.734;9.112;2023-01-24T13:27:14;98077.66;;;1.87;85.93
9525;BME280;15940;48.734;9.112;2023-01-24T13:29:59;98078.09;;;1.78;85.39
9525;BME280;15940;48.734;9.112;2023-01-24T13:32:30;98078.50;;;1.80;85.95
9525;BME280;15940;48.734;9.112;2023-01-24T13:35:01;98076.94;;;1.79;86.04
9525;BME280;15940;48.734;9.112;2023-01-24T13:37:31;98075.47;;;1.75;85.95
9525;BME280;15940;48.734;9.112;2023-01-24T13:40:02;98075.09;;;1.73;86.41
9525;BME280;15940;48.734;9.112;2023-01-24T13:42:34;98081.19;;;1.73;86.96
9525;BME280;15940;48.734;9.112;2023-01-24T13:45:45;98080.03;;;1.70;86.25
9525;BME280;15940;48.734;9.112;2023-01-24T13:51:47;98067.88;;;1.66;86.29
9525;BME280;15940;48.734;9.112;2023-01-24T13:54:37;98075.50;;;1.71;86.37
9525;BME280;15940;48.734;9.112;2023-01-24T13:57:22;98077.75;;;1.69;86.52
9525;BME280;15940;48.734;9.112;2023-01-24T14:00:17;98070.19;;;1.64;86.62
9525;BME280;15940;48.734;9.112;2023-01-24T14:03:04;98066.38;;;1.61;86.54
9525;BME280;15940;48.734;9.112;2023-01-24T14:06:06;98076.28;;;1.64;86.71
9525;BME280;15940;48.734;9.112;2023-01-24T14:11:37;98074.03;;;1.56;86.88